createdAt,value
2023-06-06T00:00:22.867Z,20.60
2023-06-06T00:02:51.134Z,20.60
2023-06-06T00:05:19.270Z,20.60
2023-06-06T00:07:47.547Z,20.60
2023-06-06T00:10:16.766Z,20.70
2023-06-06T00:12:53.395Z,20.70
2023-06-06T00:15:21.730Z,20.70
2023-06-06T00:17:54.452Z,20.70
2023-06-06T00:20:22.326Z,20.60
2023-06-06T00:22:54.822Z,20.60
2023-06-06T00:25:22.304Z,20.50
2023-06-06T00:27:49.601Z,20.40
2023-06-06T00:30:17.749Z,20.30
2023-06-06T00:32:47.071Z,20.20
2023-06-06T00:35:14.506Z,20.00
2023-06-06T00:37:41.958Z,20.00
2023-06-06T00:40:10.988Z,19.90
2023-06-06T00:42:38.666Z,19.90
2023-06-06T00:45:06.433Z,19.90
2023-06-06T00:47:34.026Z,19.90
2023-06-06T00:50:02.772Z,19.90
2023-06-06T00:52:32.435Z,20.00
2023-06-06T00:55:00.019Z,20.10
2023-06-06T00:57:28.163Z,20.00
2023-06-06T00:59:56.049Z,20.10
2023-06-06T01:02:25.931Z,20.10
2023-06-06T01:04:53.780Z,20.10
2023-06-06T01:07:21.127Z,20.10
2023-06-06T01:09:48.914Z,20.10
2023-06-06T01:12:36.597Z,20.10
2023-06-06T01:15:11.412Z,20.20
2023-06-06T01:17:43.009Z,20.20
2023-06-06T01:20:12.753Z,20.20
2023-06-06T01:22:41.292Z,20.30
2023-06-06T01:25:09.278Z,20.20
2023-06-06T01:27:36.879Z,20.20
2023-06-06T01:30:05.207Z,20.10
2023-06-06T01:32:50.195Z,20.10
2023-06-06T01:35:34.796Z,20.10
2023-06-06T01:38:15.123Z,20.00
2023-06-06T01:40:47.001Z,20.00
2023-06-06T01:43:17.727Z,20.00
2023-06-06T01:45:46.895Z,20.00
2023-06-06T01:48:14.581Z,20.00
2023-06-06T01:50:42.411Z,20.00
2023-06-06T01:53:09.687Z,20.00
2023-06-06T01:55:38.021Z,20.00
2023-06-06T01:58:06.534Z,20.00
2023-06-06T02:00:34.524Z,19.90
2023-06-06T02:03:02.921Z,19.90
2023-06-06T02:05:30.424Z,19.90
2023-06-06T02:07:57.799Z,19.90
2023-06-06T02:10:26.218Z,19.90
2023-06-06T02:12:53.569Z,19.90
2023-06-06T02:15:22.315Z,19.90
2023-06-06T02:17:50.314Z,20.00
2023-06-06T02:20:18.055Z,20.00
2023-06-06T02:22:45.320Z,20.00
2023-06-06T02:25:14.565Z,20.00
2023-06-06T02:27:44.967Z,20.00
2023-06-06T02:30:12.764Z,20.00
2023-06-06T02:32:40.642Z,20.00
2023-06-06T02:35:10.543Z,20.00
2023-06-06T02:37:38.202Z,20.10
2023-06-06T02:40:11.582Z,20.10
2023-06-06T02:42:42.463Z,20.10
2023-06-06T02:45:11.807Z,20.00
2023-06-06T02:47:39.599Z,20.00
2023-06-06T02:50:08.399Z,20.00
2023-06-06T02:52:37.176Z,20.00
2023-06-06T02:55:05.376Z,20.00
2023-06-06T02:57:32.990Z,20.00
2023-06-06T03:00:01.692Z,20.10
2023-06-06T03:02:33.443Z,20.00
2023-06-06T03:05:01.234Z,20.00
2023-06-06T03:07:33.271Z,20.00
2023-06-06T03:10:00.807Z,20.00
2023-06-06T03:12:34.665Z,20.10
2023-06-06T03:15:02.437Z,20.00
2023-06-06T03:17:37.167Z,20.10
2023-06-06T03:20:08.261Z,20.10
2023-06-06T03:22:37.567Z,20.20
2023-06-06T03:25:05.839Z,20.20
2023-06-06T03:27:35.127Z,20.20
2023-06-06T03:30:07.897Z,20.20
2023-06-06T03:32:36.042Z,20.20
2023-06-06T03:35:04.776Z,20.20
2023-06-06T03:37:33.017Z,20.20
2023-06-06T03:40:01.112Z,20.20
2023-06-06T03:42:31.613Z,20.20
2023-06-06T03:44:58.975Z,20.10
2023-06-06T03:47:26.364Z,20.20
2023-06-06T03:49:53.800Z,20.20
2023-06-06T03:52:21.163Z,20.20
2023-06-06T03:54:48.568Z,20.20
2023-06-06T03:57:16.297Z,20.20
2023-06-06T03:59:43.840Z,20.00
2023-06-06T04:02:11.151Z,19.90
2023-06-06T04:04:38.501Z,19.80
2023-06-06T04:07:06.041Z,19.80
2023-06-06T04:09:34.100Z,19.70
2023-06-06T04:12:01.386Z,19.60
2023-06-06T04:14:29.130Z,19.60
2023-06-06T04:16:56.536Z,19.70
2023-06-06T04:19:23.937Z,19.70
2023-06-06T04:21:53.205Z,19.80
2023-06-06T04:24:21.024Z,19.80
2023-06-06T04:26:48.930Z,19.90
2023-06-06T04:29:17.099Z,20.00
2023-06-06T04:31:46.311Z,20.10
2023-06-06T04:34:15.736Z,20.20
2023-06-06T04:36:43.204Z,20.30
2023-06-06T04:39:12.596Z,20.40
2023-06-06T04:44:12.235Z,20.50
2023-06-06T04:46:42.635Z,20.60
2023-06-06T04:49:10.364Z,20.60
2023-06-06T04:51:39.185Z,20.70
2023-06-06T04:54:07.926Z,20.70
2023-06-06T04:56:35.543Z,20.60
2023-06-06T04:59:09.664Z,20.70
2023-06-06T05:01:39.506Z,20.70
2023-06-06T05:04:08.346Z,20.80
2023-06-06T05:06:36.073Z,20.90
2023-06-06T05:09:07.809Z,21.00
2023-06-06T05:11:36.072Z,21.10
2023-06-06T05:14:04.191Z,21.00
2023-06-06T05:16:31.758Z,21.00
2023-06-06T05:18:59.591Z,21.10
2023-06-06T05:21:27.222Z,21.20
2023-06-06T05:23:56.005Z,21.20
2023-06-06T05:26:23.733Z,21.20
2023-06-06T05:28:51.381Z,21.30
2023-06-06T05:31:22.297Z,21.20
2023-06-06T05:33:49.728Z,21.30
2023-06-06T05:36:17.395Z,21.40
2023-06-06T05:38:45.264Z,21.40
2023-06-06T05:41:13.806Z,21.50
2023-06-06T05:43:46.345Z,21.60
2023-06-06T05:46:14.271Z,21.50
2023-06-06T05:48:42.197Z,21.70
2023-06-06T05:51:11.665Z,21.70
2023-06-06T05:53:45.842Z,21.70
2023-06-06T05:56:14.453Z,21.80
2023-06-06T05:58:42.235Z,21.90
2023-06-06T06:01:10.499Z,21.90
2023-06-06T06:03:39.846Z,21.90
2023-06-06T06:06:09.966Z,21.90
2023-06-06T06:08:37.963Z,22.00
2023-06-06T06:11:09.258Z,21.90
2023-06-06T06:13:37.498Z,22.00
2023-06-06T06:16:05.051Z,21.90
2023-06-06T06:18:33.102Z,22.00
2023-06-06T06:21:00.566Z,22.00
2023-06-06T06:23:28.945Z,22.00
2023-06-06T06:25:56.526Z,22.00
2023-06-06T06:28:26.366Z,21.90
2023-06-06T06:30:53.730Z,21.90
2023-06-06T06:33:23.814Z,21.90
2023-06-06T06:35:51.621Z,22.00
2023-06-06T06:38:19.013Z,22.20
2023-06-06T06:40:46.450Z,22.20
2023-06-06T06:43:14.022Z,22.20
2023-06-06T06:45:48.335Z,22.00
2023-06-06T06:48:15.801Z,21.90
2023-06-06T06:50:44.058Z,21.90
2023-06-06T06:53:14.196Z,21.80
2023-06-06T06:55:42.513Z,21.90
2023-06-06T06:58:09.956Z,21.90
2023-06-06T07:00:37.412Z,22.00
2023-06-06T07:03:05.849Z,22.20
2023-06-06T07:05:34.128Z,22.40
2023-06-06T07:08:02.003Z,22.60
2023-06-06T07:10:30.542Z,22.70
2023-06-06T07:12:57.849Z,22.80
2023-06-06T07:15:28.291Z,22.80
2023-06-06T07:17:57.117Z,22.80
2023-06-06T07:20:25.875Z,22.90
2023-06-06T07:22:58.015Z,22.80
2023-06-06T07:25:25.822Z,22.90
2023-06-06T07:27:54.028Z,22.80
2023-06-06T07:30:21.764Z,22.80
2023-06-06T07:32:49.121Z,22.80
2023-06-06T07:35:20.731Z,22.80
2023-06-06T07:37:49.387Z,22.90
2023-06-06T07:40:18.381Z,22.90
2023-06-06T07:42:48.880Z,22.90
2023-06-06T07:45:17.030Z,23.00
2023-06-06T07:47:44.790Z,23.10
2023-06-06T07:50:12.262Z,23.20
2023-06-06T07:52:45.258Z,23.20
2023-06-06T07:55:13.285Z,23.30
2023-06-06T07:57:42.401Z,23.40
2023-06-06T08:00:12.510Z,23.40
2023-06-06T08:02:42.104Z,23.40
2023-06-06T08:05:11.639Z,23.40
2023-06-06T08:07:42.038Z,23.50
2023-06-06T08:10:10.339Z,23.50
2023-06-06T08:12:39.048Z,23.50
2023-06-06T08:15:07.625Z,23.50
2023-06-06T08:17:35.449Z,23.60
2023-06-06T08:20:07.579Z,23.60
2023-06-06T08:22:35.509Z,23.80
2023-06-06T08:25:09.181Z,23.80
2023-06-06T08:27:37.964Z,23.80
2023-06-06T08:30:07.269Z,23.80
2023-06-06T08:32:36.743Z,23.80
2023-06-06T08:35:06.566Z,23.90
2023-06-06T08:37:33.866Z,23.90
2023-06-06T08:40:01.569Z,23.90
2023-06-06T08:42:35.588Z,24.00
2023-06-06T08:45:04.383Z,24.00
2023-06-06T08:47:33.485Z,24.00
2023-06-06T08:50:02.337Z,24.10
2023-06-06T08:52:37.370Z,24.00
2023-06-06T08:55:09.148Z,24.10
2023-06-06T08:57:42.989Z,24.10
2023-06-06T09:00:12.862Z,24.10
2023-06-06T09:02:42.886Z,24.20
2023-06-06T09:05:12.902Z,24.30
2023-06-06T09:07:41.345Z,24.30
2023-06-06T09:10:09.485Z,24.30
2023-06-06T09:12:44.300Z,24.40
2023-06-06T09:15:12.325Z,24.30
2023-06-06T09:17:41.880Z,24.20
2023-06-06T09:20:13.499Z,24.20
2023-06-06T09:22:51.604Z,24.10
2023-06-06T09:25:21.653Z,24.10
2023-06-06T09:27:55.077Z,24.20
2023-06-06T09:30:27.655Z,24.30
2023-06-06T09:33:00.351Z,24.30
2023-06-06T09:35:36.063Z,24.30
2023-06-06T09:38:11.508Z,24.30
2023-06-06T09:41:08.392Z,24.30
2023-06-06T09:43:39.368Z,24.30
2023-06-06T09:46:07.628Z,24.30
2023-06-06T09:48:37.879Z,24.30
2023-06-06T09:51:06.345Z,24.30
2023-06-06T09:53:37.636Z,24.50
2023-06-06T09:56:06.473Z,24.50
2023-06-06T09:58:36.117Z,24.50
2023-06-06T10:01:05.109Z,24.70
2023-06-06T10:03:37.093Z,24.80
2023-06-06T10:06:06.928Z,24.80
2023-06-06T10:08:37.017Z,24.80
2023-06-06T10:11:05.261Z,24.90
2023-06-06T10:13:33.068Z,25.00
2023-06-06T10:16:02.362Z,25.10
2023-06-06T10:18:31.674Z,25.10
2023-06-06T10:20:59.818Z,25.20
2023-06-06T10:23:27.300Z,25.20
2023-06-06T10:25:56.983Z,25.00
2023-06-06T10:28:31.318Z,25.00
2023-06-06T10:31:02.996Z,25.00
2023-06-06T10:33:52.045Z,24.80
2023-06-06T10:36:20.299Z,24.70
2023-06-06T10:39:16.856Z,24.70
2023-06-06T10:41:50.748Z,24.80
2023-06-06T10:44:22.164Z,24.70
2023-06-06T10:46:51.282Z,24.70
2023-06-06T10:49:19.085Z,24.70
2023-06-06T10:51:47.755Z,24.80
2023-06-06T10:54:17.751Z,24.90
2023-06-06T10:56:56.229Z,25.00
2023-06-06T10:59:32.173Z,25.00
2023-06-06T11:01:59.803Z,25.00
2023-06-06T11:04:29.533Z,25.00
2023-06-06T11:07:16.732Z,24.90
2023-06-06T11:09:44.248Z,24.90
2023-06-06T11:12:16.207Z,24.80
2023-06-06T11:15:02.259Z,24.80
2023-06-06T11:18:05.256Z,24.80
2023-06-06T11:20:41.423Z,24.70
2023-06-06T11:23:12.373Z,24.60
2023-06-06T11:25:42.564Z,24.50
2023-06-06T11:28:11.284Z,24.60
2023-06-06T11:30:40.471Z,24.70
2023-06-06T11:33:11.114Z,24.60
2023-06-06T11:35:41.174Z,24.60
2023-06-06T11:38:09.088Z,24.50
2023-06-06T11:40:36.392Z,24.30
2023-06-06T11:43:03.868Z,24.30
2023-06-06T11:45:33.020Z,24.20
2023-06-06T11:48:10.205Z,24.20
2023-06-06T11:50:45.864Z,24.10
2023-06-06T11:53:13.147Z,24.10
2023-06-06T11:55:40.457Z,24.10
2023-06-06T11:58:08.526Z,24.10
2023-06-06T12:00:36.297Z,24.00
2023-06-06T12:03:03.908Z,24.00
2023-06-06T12:05:35.369Z,24.00
2023-06-06T12:08:03.943Z,23.90
2023-06-06T12:10:32.955Z,23.80
2023-06-06T12:13:00.637Z,23.80
2023-06-06T12:15:51.185Z,23.70
2023-06-06T12:18:18.919Z,23.80
2023-06-06T12:20:47.685Z,23.70
2023-06-06T12:23:27.472Z,23.60
2023-06-06T12:25:56.788Z,23.60
2023-06-06T12:28:25.249Z,23.60
2023-06-06T12:30:55.679Z,23.50
2023-06-06T12:33:23.347Z,23.50
2023-06-06T12:35:50.603Z,23.40
2023-06-06T12:38:22.985Z,23.30
2023-06-06T12:40:56.971Z,23.30
2023-06-06T12:43:24.459Z,23.20
2023-06-06T12:45:52.243Z,23.20
2023-06-06T12:48:23.601Z,23.20
2023-06-06T12:50:51.052Z,23.10
2023-06-06T12:53:19.469Z,23.00
2023-06-06T12:55:47.650Z,23.00
2023-06-06T12:58:15.120Z,23.00
2023-06-06T13:00:42.482Z,23.00
2023-06-06T13:03:12.111Z,22.90
2023-06-06T13:05:39.596Z,23.00
2023-06-06T13:08:06.949Z,23.00
2023-06-06T13:10:35.752Z,23.00
2023-06-06T13:13:03.100Z,23.00
2023-06-06T13:15:33.909Z,23.00
2023-06-06T13:18:01.287Z,23.00
2023-06-06T13:20:29.614Z,23.00
2023-06-06T13:22:57.107Z,23.00
2023-06-06T13:25:24.714Z,23.00
2023-06-06T13:27:52.103Z,23.00
2023-06-06T13:30:19.846Z,23.00
2023-06-06T13:32:48.133Z,23.10
2023-06-06T13:35:15.710Z,23.00
2023-06-06T13:37:42.914Z,22.90
2023-06-06T13:40:10.345Z,22.90
2023-06-06T13:42:37.591Z,22.80
2023-06-06T13:45:05.363Z,22.70
2023-06-06T13:47:33.433Z,22.70
2023-06-06T13:50:01.305Z,22.50
2023-06-06T13:52:29.514Z,22.40
2023-06-06T13:54:56.809Z,22.30
2023-06-06T13:57:30.012Z,22.20
2023-06-06T13:59:57.548Z,22.10
2023-06-06T14:02:27.648Z,22.00
2023-06-06T14:04:55.096Z,21.90
2023-06-06T14:07:22.585Z,21.80
2023-06-06T14:09:49.917Z,21.70
2023-06-06T14:12:18.577Z,21.70
2023-06-06T14:14:48.009Z,21.70
2023-06-06T14:17:17.832Z,21.60
2023-06-06T14:19:51.569Z,21.60
2023-06-06T14:22:25.130Z,21.60
2023-06-06T14:24:57.822Z,21.60
2023-06-06T14:27:28.866Z,21.60
2023-06-06T14:29:57.674Z,21.60
2023-06-06T14:32:32.262Z,21.60
2023-06-06T14:35:05.094Z,21.60
2023-06-06T14:37:33.765Z,21.70
2023-06-06T14:40:02.333Z,21.70
2023-06-06T14:42:33.604Z,21.50
2023-06-06T14:45:01.593Z,21.40
2023-06-06T14:47:33.235Z,21.30
2023-06-06T14:50:00.685Z,21.30
2023-06-06T14:52:28.223Z,21.30
2023-06-06T14:54:55.824Z,21.20
2023-06-06T14:57:23.375Z,21.20
2023-06-06T15:02:20.866Z,21.30
2023-06-06T15:04:48.410Z,21.30
2023-06-06T15:07:15.972Z,21.40
2023-06-06T15:09:43.452Z,21.50
2023-06-06T15:12:14.227Z,21.80
2023-06-06T15:14:42.818Z,22.10
2023-06-06T15:17:11.398Z,22.40
2023-06-06T15:19:42.691Z,22.50
2023-06-06T15:22:16.382Z,22.70
2023-06-06T15:24:45.397Z,22.60
2023-06-06T15:27:13.238Z,22.60
2023-06-06T15:29:43.786Z,22.50
2023-06-06T15:32:12.334Z,22.50
2023-06-06T15:34:40.126Z,22.50
2023-06-06T15:37:09.200Z,22.40
2023-06-06T15:39:36.771Z,22.60
2023-06-06T15:42:04.286Z,22.80
2023-06-06T15:44:32.761Z,23.50
2023-06-06T15:47:00.511Z,24.20
2023-06-06T15:49:27.923Z,25.30
2023-06-06T15:51:55.399Z,26.90
2023-06-06T15:54:22.601Z,28.30
2023-06-06T15:56:49.887Z,29.00
2023-06-06T15:59:17.490Z,28.50
2023-06-06T16:01:44.921Z,27.50
2023-06-06T16:04:12.351Z,27.80
2023-06-06T16:06:40.679Z,29.10
2023-06-06T16:09:09.649Z,28.90
2023-06-06T16:11:36.931Z,28.30
2023-06-06T16:14:04.299Z,27.50
2023-06-06T16:16:31.786Z,27.10
2023-06-06T16:18:59.317Z,27.00
2023-06-06T16:21:27.041Z,26.70
2023-06-06T16:23:54.422Z,26.10
2023-06-06T16:26:26.933Z,25.30
2023-06-06T16:28:54.198Z,24.90
2023-06-06T16:31:21.587Z,24.50
2023-06-06T16:33:48.886Z,24.20
2023-06-06T16:36:16.296Z,23.90
2023-06-06T16:38:43.670Z,23.60
2023-06-06T16:41:10.918Z,23.60
2023-06-06T16:43:38.543Z,23.90
2023-06-06T16:46:05.921Z,24.10
2023-06-06T16:48:33.599Z,24.30
2023-06-06T16:51:00.855Z,24.50
2023-06-06T16:53:28.121Z,24.70
2023-06-06T16:55:56.025Z,24.70
2023-06-06T16:58:23.358Z,24.50
2023-06-06T17:00:51.152Z,24.30
2023-06-06T17:03:19.504Z,23.90
2023-06-06T17:05:47.861Z,23.50
2023-06-06T17:08:16.901Z,23.30
2023-06-06T17:10:44.198Z,23.20
2023-06-06T17:13:11.707Z,23.10
2023-06-06T17:15:39.777Z,23.00
2023-06-06T17:18:07.328Z,22.90
2023-06-06T17:20:34.740Z,22.80
2023-06-06T17:23:02.365Z,22.70
2023-06-06T17:25:49.439Z,22.50
2023-06-06T17:28:17.247Z,22.50
2023-06-06T17:30:53.101Z,22.40
2023-06-06T17:33:21.371Z,22.20
2023-06-06T17:35:49.594Z,22.10
2023-06-06T17:38:17.190Z,22.00
2023-06-06T17:40:44.525Z,22.00
2023-06-06T17:43:13.255Z,21.90
2023-06-06T17:45:41.753Z,21.80
2023-06-06T17:48:09.923Z,21.70
2023-06-06T17:50:41.851Z,21.70
2023-06-06T17:53:09.753Z,21.60
2023-06-06T17:55:39.087Z,21.50
2023-06-06T17:58:07.975Z,21.50
2023-06-06T18:00:35.302Z,21.40
2023-06-06T18:03:02.603Z,21.30
2023-06-06T18:05:35.076Z,21.30
2023-06-06T18:08:08.037Z,21.20
2023-06-06T18:10:37.124Z,21.10
2023-06-06T18:13:06.072Z,21.10
2023-06-06T18:15:33.407Z,21.00
2023-06-06T18:18:01.217Z,21.00
2023-06-06T18:20:28.591Z,20.90
2023-06-06T18:22:57.095Z,20.90
2023-06-06T18:25:25.801Z,20.90
2023-06-06T18:27:53.290Z,20.80
2023-06-06T18:30:21.193Z,20.80
2023-06-06T18:32:48.471Z,20.80
2023-06-06T18:35:16.569Z,20.80
2023-06-06T18:37:43.933Z,20.70
2023-06-06T18:40:15.199Z,20.70
2023-06-06T18:42:42.571Z,20.60
2023-06-06T18:45:13.001Z,20.50
2023-06-06T18:47:41.280Z,20.50
2023-06-06T18:50:10.352Z,20.50
2023-06-06T18:52:39.811Z,20.40
2023-06-06T18:55:08.389Z,20.40
2023-06-06T18:57:36.061Z,20.40
2023-06-06T19:00:05.380Z,20.40
2023-06-06T19:02:33.561Z,20.40
2023-06-06T19:05:01.806Z,20.40
2023-06-06T19:07:32.660Z,20.40
2023-06-06T19:10:00.196Z,20.40
2023-06-06T19:12:42.429Z,20.50
2023-06-06T19:15:15.524Z,20.50
2023-06-06T19:17:43.098Z,20.50
2023-06-06T19:20:11.338Z,20.50
2023-06-06T19:22:39.279Z,20.50
2023-06-06T19:25:07.137Z,20.60
2023-06-06T19:27:35.163Z,20.50
2023-06-06T19:30:03.721Z,20.60
2023-06-06T19:32:34.688Z,20.50
2023-06-06T19:35:02.385Z,20.50
2023-06-06T19:37:33.601Z,20.50
2023-06-06T19:40:01.667Z,20.50
2023-06-06T19:42:33.276Z,20.50
2023-06-06T19:45:00.855Z,20.50
2023-06-06T19:47:29.623Z,20.60
2023-06-06T19:49:57.065Z,20.60
2023-06-06T19:52:24.715Z,20.70
2023-06-06T19:54:52.019Z,20.70
2023-06-06T19:57:19.541Z,20.60
2023-06-06T19:59:47.087Z,20.60
2023-06-06T20:02:14.380Z,20.60
2023-06-06T20:04:44.738Z,20.50
2023-06-06T20:07:12.073Z,20.50
2023-06-06T20:09:39.361Z,20.50
2023-06-06T20:12:07.746Z,20.50
2023-06-06T20:14:35.080Z,20.40
2023-06-06T20:17:03.015Z,20.50
2023-06-06T20:19:30.380Z,20.50
2023-06-06T20:22:01.107Z,20.50
2023-06-06T20:24:28.421Z,20.50
2023-06-06T20:26:55.853Z,20.50
2023-06-06T20:29:23.320Z,20.50
2023-06-06T20:31:50.705Z,20.50
2023-06-06T20:34:18.129Z,20.50
2023-06-06T20:36:47.414Z,20.60
2023-06-06T20:39:24.622Z,20.50
2023-06-06T20:41:52.201Z,20.50
2023-06-06T20:44:22.657Z,20.50
2023-06-06T20:46:49.937Z,20.60
2023-06-06T20:49:17.378Z,20.60
2023-06-06T20:51:44.724Z,20.60
2023-06-06T20:54:13.110Z,20.60
2023-06-06T20:56:41.202Z,20.60
2023-06-06T20:59:08.581Z,20.60
2023-06-06T21:01:36.373Z,20.60
2023-06-06T21:04:04.849Z,20.60
2023-06-06T21:06:32.135Z,20.50
2023-06-06T21:08:59.448Z,20.40
2023-06-06T21:11:27.304Z,20.40
2023-06-06T21:13:54.555Z,20.40
2023-06-06T21:16:22.028Z,20.40
2023-06-06T21:18:49.493Z,20.40
2023-06-06T21:21:17.875Z,20.50
2023-06-06T21:23:45.183Z,20.40
2023-06-06T21:26:12.772Z,20.40
2023-06-06T21:28:40.037Z,20.30
2023-06-06T21:31:07.339Z,20.40
2023-06-06T21:33:34.665Z,20.30
2023-06-06T21:36:02.281Z,20.30
2023-06-06T21:38:29.645Z,20.20
2023-06-06T21:40:57.297Z,20.20
2023-06-06T21:43:24.561Z,20.10
2023-06-06T21:45:51.806Z,20.20
2023-06-06T21:48:19.164Z,20.30
2023-06-06T21:50:46.480Z,20.30
2023-06-06T21:53:14.046Z,20.40
2023-06-06T21:55:41.589Z,20.40
2023-06-06T21:58:08.987Z,20.40
2023-06-06T22:00:36.698Z,20.40
2023-06-06T22:03:04.258Z,20.40
2023-06-06T22:05:31.622Z,20.40
2023-06-06T22:07:58.912Z,20.40
2023-06-06T22:10:27.250Z,20.40
2023-06-06T22:12:54.482Z,20.40
2023-06-06T22:15:21.954Z,20.40
2023-06-06T22:17:49.894Z,20.30
2023-06-06T22:20:17.762Z,20.30
2023-06-06T22:22:45.105Z,20.30
2023-06-06T22:25:12.483Z,20.30
2023-06-06T22:27:40.086Z,20.30
2023-06-06T22:30:08.052Z,20.30
2023-06-06T22:32:35.840Z,20.40
2023-06-06T22:35:04.019Z,20.40
2023-06-06T22:37:32.408Z,20.50
2023-06-06T22:39:59.645Z,20.60
2023-06-06T22:42:28.811Z,20.60
2023-06-06T22:44:56.491Z,20.50
2023-06-06T22:47:23.981Z,20.30
2023-06-06T22:49:51.344Z,20.40
2023-06-06T22:52:18.830Z,20.30
2023-06-06T22:54:46.600Z,20.30
2023-06-06T22:57:13.911Z,20.40
2023-06-06T22:59:41.175Z,20.40
2023-06-06T23:02:08.573Z,20.30
2023-06-06T23:04:35.952Z,20.40
2023-06-06T23:07:04.329Z,20.40
2023-06-06T23:09:31.613Z,20.30
2023-06-06T23:11:59.128Z,20.30
2023-06-06T23:14:27.949Z,20.30
2023-06-06T23:16:56.050Z,20.40
2023-06-06T23:19:23.431Z,20.30
2023-06-06T23:21:51.150Z,20.40
2023-06-06T23:24:18.428Z,20.40
2023-06-06T23:26:45.875Z,20.40
2023-06-06T23:29:13.242Z,20.40
2023-06-06T23:31:40.525Z,20.40
2023-06-06T23:34:07.787Z,20.50
2023-06-06T23:36:35.166Z,20.50
2023-06-06T23:39:03.796Z,20.50
2023-06-06T23:41:31.450Z,20.50
2023-06-06T23:43:59.166Z,20.50
2023-06-06T23:46:26.476Z,20.50
2023-06-06T23:48:53.953Z,20.60
2023-06-06T23:51:21.347Z,20.50
2023-06-06T23:53:48.694Z,20.40
2023-06-06T23:56:16.116Z,20.50
2023-06-06T23:58:43.414Z,20.40
